Latest Coastal Weather Observations for Bougainville Reef

IDQ60701

Issued at 10:12 pm EST Sunday 4 December 2016 (issued every 10 minutes, with the page automatically refreshed every 10 minutes)

About coastal observations | Map of coastal stations | Coastal observations for QLD | Marine services | Other Formats
Station Details ID: 200840 Name: BOUGAINVILLE REEF Lat: -15.49 Lon: 147.12 Height: 0.0 m
Data from the previous 72 hours. | See also: Recent months for locations in Queensland
Date/Time
EST
Temp
°C
Wind Pressure Rain since
9am
mm
Weather Cloud Vis
km
Sea
Height
m
Swell
Dir  Spd
kts
Gust
kts
hPa Trend Height
m
Period
s
Dir
04/10:00pm 27.4 ESE 21 23 1012.3 - - - - - - - - -
04/09:30pm 27.5 ESE 20 23 1012.3 - - - - - - - - -
04/09:00pm 27.3 ESE 20 25 1012.0 - - - - - - - - -
04/08:30pm 27.5 ESE 18 21 1012.1 - - - - - - - - -
04/08:00pm 27.4 ESE 19 21 1011.7 - - - - - - - - -
04/07:30pm 27.5 ESE 19 21 1011.6 - - - - - - - - -
04/07:00pm 27.4 ESE 19 22 1011.3 - - - - - - - - -
04/06:30pm 27.5 ESE 18 20 1011.3 - - - - - - - - -
04/06:00pm 27.3 SE 17 20 1010.8 - - - - - - - - -
04/05:30pm 27.4 SE 17 20 1010.8 - - - - - - - - -
04/05:00pm 27.5 SE 16 18 1010.3 - - - - - - - - -
04/04:30pm 27.5 SE 15 17 1010.4 - - - - - - - - -
04/04:00pm 27.4 SE 15 17 1010.3 - - - - - - - - -
04/03:30pm 27.4 SE 15 18 1010.5 - - - - - - - - -
04/03:00pm 27.5 ESE 16 19 1010.7 - - - - - - - - -
04/02:30pm 27.4 ESE 18 19 1010.9 - - - - - - - - -
04/02:00pm 27.5 SE 19 21 1011.1 - - - - - - - - -
04/01:30pm 27.5 SE 19 21 1011.6 - - - - - - - - -
04/01:00pm 27.8 SE 20 24 1011.9 - - - - - - - - -
04/12:30pm 27.5 SE 19 23 1012.2 - - - - - - - - -
04/12:00pm 27.4 ESE 17 20 1012.2 - - - - - - - - -
04/11:30am 27.7 ESE 20 22 1012.8 - - - - - - - - -
04/11:00am 27.7 ESE 20 25 1013.3 - - - - - - - - -
04/10:30am 27.4 ESE 19 23 1013.2 - - - - - - - - -
04/10:00am 27.4 ESE 20 23 1013.2 - - - - - - - - -
04/09:30am 27.4 ESE 19 22 1013.4 - - - - - - - - -
04/09:00am 27.4 ESE 21 25 1013.2 - - - - - - - - -
04/08:30am 27.5 ESE 20 25 1013.4 - - - - - - - - -
04/08:00am 27.3 ESE 22 25 1013.1 - - - - - - - - -
04/07:30am 27.3 ESE 21 24 1013.1 - - - - - - - - -
04/07:00am 27.3 ESE 22 27 1012.6 - - - - - - - - -
04/06:30am 27.4 ESE 22 25 1012.5 - - - - - - - - -
04/06:00am 27.2 ESE 21 22 1012.1 - - - - - - - - -
04/05:30am 27.3 ESE 23 26 1012.0 - - - - - - - - -
04/05:00am 27.2 ESE 23 27 1011.7 - - - - - - - - -
04/04:30am 27.2 ESE 21 23 1011.6 - - - - - - - - -
04/04:00am 27.3 ESE 22 23 1011.2 - - - - - - - - -
04/03:30am 27.0 ESE 21 24 1011.1 - - - - - - - - -
04/03:00am 27.3 ESE 22 22 1010.9 - - - - - - - - -
04/02:30am 27.2 ESE 22 27 1010.9 - - - - - - - - -
04/02:00am 27.3 ESE 21 22 1011.1 - - - - - - - - -
04/01:30am 27.1 ESE 19 23 1011.2 - - - - - - - - -
04/01:00am 27.4 E 20 24 1011.4 - - - - - - - - -
04/12:30am 27.1 ESE 20 23 1011.5 - - - - - - - - -
04/12:00am 27.3 ESE 19 23 1012.1 - - - - - - - - -
 
Date/Time
EST
Temp
°C
Wind Pressure Rain since
9am
mm
Weather Cloud Vis
km
Sea
Height
m
Swell
Dir  Spd
kts
Gust
kts
hPa Trend Height
m
Period
s
Dir
03/11:30pm 27.3 ESE 20 23 1012.5 - - - - - - - - -
03/11:00pm 27.4 ESE 19 23 1012.4 - - - - - - - - -
03/10:30pm 27.2 ESE 18 21 1012.5 - - - - - - - - -
03/10:00pm 27.3 ESE 19 - 1012.4 - - - - - - - - -
03/09:30pm 27.2 ESE 18 21 1012.4 - - - - - - - - -
03/09:00pm 27.1 ESE 17 - 1012.2 - - - - - - - - -
03/08:00pm 27.1 ESE 17 20 1011.9 - - - - - - - - -
03/07:30pm 27.3 ESE 18 21 1011.9 - - - - - - - - -
03/07:00pm 27.3 ESE 17 19 1011.7 - - - - - - - - -
03/06:30pm 27.3 ESE 18 21 1011.6 - - - - - - - - -
03/06:00pm 27.4 SE 16 19 1011.4 - - - - - - - - -
03/05:30pm 27.3 SE 15 19 1011.3 - - - - - - - - -
03/05:00pm 27.3 SE 14 18 1011.0 - - - - - - - - -
03/04:30pm 27.4 SE 14 17 1011.1 - - - - - - - - -
03/04:00pm 27.2 SE 14 17 1011.0 - - - - - - - - -
03/03:30pm 27.2 SE 14 16 1011.0 - - - - - - - - -
03/03:00pm 27.2 SE 13 17 1011.0 - - - - - - - - -
03/02:30pm 27.2 SE 13 15 1011.2 - - - - - - - - -
03/02:00pm 27.4 SE 14 17 1011.3 - - - - - - - - -
03/01:30pm 27.3 SE 13 16 1011.7 - - - - - - - - -
03/01:00pm 27.3 SE 13 16 1011.9 - - - - - - - - -
03/12:30pm 27.1 SE 12 14 1012.2 - - - - - - - - -
03/12:00pm 27.1 ESE 12 15 1012.3 - - - - - - - - -
03/11:30am 27.0 ESE 12 13 1012.6 - - - - - - - - -
03/11:00am 27.3 SE 12 15 1012.7 - - - - - - - - -
03/10:30am 27.3 ESE 13 15 1013.0 - - - - - - - - -
03/10:00am 27.2 ESE 13 14 1013.0 - - - - - - - - -
03/09:30am 27.2 ESE 13 16 1013.3 - - - - - - - - -
03/09:00am 27.1 ESE 13 15 1013.3 - - - - - - - - -
03/08:30am 27.0 ESE 12 15 1013.4 - - - - - - - - -
03/08:00am 27.0 ESE 12 13 1013.0 - - - - - - - - -
03/07:30am 27.1 E 14 16 1012.9 - - - - - - - - -
03/07:00am 26.9 ESE 15 18 1012.5 - - - - - - - - -
03/06:30am 26.8 ESE 12 16 1012.2 - - - - - - - - -
03/06:00am 26.6 ESE 12 14 1011.8 - - - - - - - - -
03/05:30am 26.6 ESE 12 15 1011.8 - - - - - - - - -
03/05:00am 26.5 ESE 12 16 1011.2 - - - - - - - - -
03/04:30am 26.6 ESE 13 17 1011.1 - - - - - - - - -
03/04:00am 26.6 E 13 16 1010.7 - - - - - - - - -
03/03:30am 26.4 ESE 14 16 1010.7 - - - - - - - - -
03/03:00am 26.5 ESE 13 16 1010.4 - - - - - - - - -
03/02:30am 26.5 E 13 15 1010.4 - - - - - - - - -
03/02:00am 26.6 ESE 13 17 1010.7 - - - - - - - - -
03/01:30am 26.7 ESE 13 15 1011.0 - - - - - - - - -
03/01:00am 26.6 ESE 13 15 1011.1 - - - - - - - - -
03/12:30am 26.6 ESE 14 16 1011.6 - - - - - - - - -
03/12:00am 26.7 ESE 14 16 1012.2 - - - - - - - - -
 
Date/Time
EST
Temp
°C
Wind Pressure Rain since
9am
mm
Weather Cloud Vis
km
Sea
Height
m
Swell
Dir  Spd
kts
Gust
kts
hPa Trend Height
m
Period
s
Dir
02/11:30pm 26.8 ESE 14 17 1012.6 - - - - - - - - -
02/11:00pm 26.9 ESE 14 17 1012.7 - - - - - - - - -
02/10:30pm 26.9 ESE 15 16 1012.8 - - - - - - - - -
02/10:00pm 27.1 ESE 14 17 1012.7 - - - - - - - - -
02/09:30pm 26.9 SE 14 16 1012.6 - - - - - - - - -
02/09:00pm 26.9 SE 13 17 1012.3 - - - - - - - - -
02/08:30pm 27.0 SE 13 16 1012.3 - - - - - - - - -
02/08:00pm 26.9 SE 12 14 1012.1 - - - - - - - - -
02/07:30pm 27.0 SE 11 13 1012.1 - - - - - - - - -
02/07:00pm 27.1 SE 11 13 1011.8 - - - - - - - - -
02/06:30pm 27.0 SE 10 13 1011.9 - - - - - - - - -
02/06:00pm 27.1 ESE 10 13 1011.4 - - - - - - - - -
02/05:30pm 27.1 ESE 10 12 1011.3 - - - - - - - - -
02/05:00pm 27.2 SE 10 11 1011.1 - - - - - - - - -
02/04:30pm 27.2 SE 10 11 1011.1 - - - - - - - - -
02/04:00pm 27.2 SE 9 11 1010.9 - - - - - - - - -
02/03:30pm 27.1 SE 10 12 1011.1 - - - - - - - - -
02/03:00pm 27.2 ESE 10 13 1011.3 - - - - - - - - -
02/02:30pm 27.3 ESE 11 13 1011.5 - - - - - - - - -
02/02:00pm 27.1 ESE 9 13 1011.5 - - - - - - - - -
02/01:30pm 27.3 ESE 9 11 1011.6 - - - - - - - - -
02/01:00pm 27.0 E 8 10 1011.8 - - - - - - - - -
02/12:30pm 26.9 ESE 7 9 1012.1 - - - - - - - - -
02/12:00pm 26.9 ESE 8 - 1012.5 - - - - - - - - -
02/11:00am 27.0 SE 7 - 1012.8 - - - - - - - - -
02/10:00am 27.0 SE 8 - 1013.0 - - - - - - - - -
02/09:00am 27.0 SE 6 - 1012.7 - - - - - - - - -
02/08:00am 26.7 ESE 8 - 1012.4 - - - - - - - - -
02/07:00am 26.8 ESE 10 - 1011.9 - - - - - - - - -
02/06:00am 26.5 E 10 - 1011.2 - - - - - - - - -
02/05:00am 26.4 ESE 10 - 1010.7 - - - - - - - - -
02/04:00am 26.3 SE 8 - 1010.4 - - - - - - - - -
02/03:00am 26.4 ESE 8 - 1010.3 - - - - - - - - -
02/02:00am 26.5 E 9 - 1010.4 - - - - - - - - -
02/01:00am 26.6 E 10 - 1010.5 - - - - - - - - -
02/12:00am 26.8 ESE 12 - 1010.9 - - - - - - - - -
 
Date/Time
EST
Temp
°C
Wind Pressure Rain since
9am
mm
Weather Cloud Vis
km
Sea
Height
m
Swell
Dir  Spd
kts
Gust
kts
hPa Trend Height
m
Period
s
Dir
01/11:00pm 26.9 ESE 11 - 1011.5 - - - - - - - - -

Other Formats:

Comma delimited format used in spreadsheet applications
http://www.bom.gov.au/fwo/IDQ60701/IDQ60701.95288.axf

JavaScript Object Notation format (JSON) in row-major order
http://www.bom.gov.au/fwo/IDQ60701/IDQ60701.95288.json